sensor_id;sensor_type;location;lat;lon;timestamp;P1;durP1;ratioP1;P2;durP2;ratioP2
17177;SDS011;8704;52.006;4.374;2022-08-23T00:01:20;6.75;;;4.10;;
17177;SDS011;8704;52.006;4.374;2022-08-23T00:03:50;10.13;;;3.78;;
17177;SDS011;8704;52.006;4.374;2022-08-23T00:06:19;8.82;;;4.45;;
17177;SDS011;8704;52.006;4.374;2022-08-23T00:08:49;6.30;;;3.72;;
17177;SDS011;8704;52.006;4.374;2022-08-23T00:11:25;9.70;;;4.28;;
17177;SDS011;8704;52.006;4.374;2022-08-23T00:13:55;8.57;;;4.15;;
17177;SDS011;8704;52.006;4.374;2022-08-23T00:16:26;10.77;;;4.22;;
17177;SDS011;8704;52.006;4.374;2022-08-23T00:18:54;10.75;;;4.45;;
17177;SDS011;8704;52.006;4.374;2022-08-23T00:21:23;7.88;;;4.72;;
17177;SDS011;8704;52.006;4.374;2022-08-23T00:23:51;7.32;;;4.10;;
17177;SDS011;8704;52.006;4.374;2022-08-23T00:26:19;9.00;;;4.50;;
17177;SDS011;8704;52.006;4.374;2022-08-23T00:28:47;9.45;;;4.97;;
17177;SDS011;8704;52.006;4.374;2022-08-23T00:31:15;12.32;;;5.05;;
17177;SDS011;8704;52.006;4.374;2022-08-23T00:33:44;8.35;;;4.65;;
17177;SDS011;8704;52.006;4.374;2022-08-23T00:36:12;11.40;;;4.95;;
17177;SDS011;8704;52.006;4.374;2022-08-23T00:38:40;7.30;;;4.90;;
17177;SDS011;8704;52.006;4.374;2022-08-23T00:41:08;10.35;;;4.95;;
17177;SDS011;8704;52.006;4.374;2022-08-23T00:43:37;9.18;;;4.10;;
17177;SDS011;8704;52.006;4.374;2022-08-23T00:46:32;8.88;;;4.47;;
17177;SDS011;8704;52.006;4.374;2022-08-23T00:49:27;12.05;;;4.47;;
17177;SDS011;8704;52.006;4.374;2022-08-23T00:51:57;7.55;;;4.22;;
17177;SDS011;8704;52.006;4.374;2022-08-23T00:54:32;6.90;;;4.20;;
17177;SDS011;8704;52.006;4.374;2022-08-23T00:57:04;8.93;;;3.80;;
17177;SDS011;8704;52.006;4.374;2022-08-23T00:59:34;7.65;;;3.92;;
17177;SDS011;8704;52.006;4.374;2022-08-23T01:02:03;7.60;;;4.30;;
17177;SDS011;8704;52.006;4.374;2022-08-23T01:04:39;7.55;;;3.97;;
17177;SDS011;8704;52.006;4.374;2022-08-23T01:07:10;8.38;;;4.35;;
17177;SDS011;8704;52.006;4.374;2022-08-23T01:09:43;11.68;;;4.75;;
17177;SDS011;8704;52.006;4.374;2022-08-23T01:12:15;11.48;;;4.38;;
17177;SDS011;8704;52.006;4.374;2022-08-23T01:14:59;8.45;;;4.43;;
17177;SDS011;8704;52.006;4.374;2022-08-23T01:17:33;8.90;;;3.92;;
17177;SDS011;8704;52.006;4.374;2022-08-23T01:20:07;7.53;;;3.95;;
17177;SDS011;8704;52.006;4.374;2022-08-23T01:22:41;7.53;;;4.28;;
17177;SDS011;8704;52.006;4.374;2022-08-23T01:25:15;8.68;;;4.18;;
17177;SDS011;8704;52.006;4.374;2022-08-23T01:27:47;7.85;;;4.38;;
17177;SDS011;8704;52.006;4.374;2022-08-23T01:30:17;8.85;;;4.90;;
17177;SDS011;8704;52.006;4.374;2022-08-23T01:32:48;9.17;;;4.63;;
17177;SDS011;8704;52.006;4.374;2022-08-23T01:35:19;8.23;;;4.60;;
17177;SDS011;8704;52.006;4.374;2022-08-23T01:37:55;9.48;;;4.35;;
17177;SDS011;8704;52.006;4.374;2022-08-23T01:40:24;9.85;;;4.32;;
17177;SDS011;8704;52.006;4.374;2022-08-23T01:42:52;9.88;;;4.40;;
17177;SDS011;8704;52.006;4.374;2022-08-23T01:45:20;9.38;;;4.85;;
17177;SDS011;8704;52.006;4.374;2022-08-23T01:47:48;9.00;;;4.15;;
17177;SDS011;8704;52.006;4.374;2022-08-23T01:50:16;11.32;;;4.82;;
17177;SDS011;8704;52.006;4.374;2022-08-23T01:52:45;10.32;;;4.93;;
17177;SDS011;8704;52.006;4.374;2022-08-23T01:55:13;11.60;;;4.68;;
17177;SDS011;8704;52.006;4.374;2022-08-23T01:57:42;10.02;;;4.80;;
17177;SDS011;8704;52.006;4.374;2022-08-23T02:00:15;12.05;;;5.40;;
17177;SDS011;8704;52.006;4.374;2022-08-23T02:02:43;10.65;;;4.78;;
17177;SDS011;8704;52.006;4.374;2022-08-23T02:05:12;9.93;;;5.00;;
17177;SDS011;8704;52.006;4.374;2022-08-23T02:07:44;10.02;;;5.20;;
17177;SDS011;8704;52.006;4.374;2022-08-23T02:10:12;11.82;;;5.22;;
17177;SDS011;8704;52.006;4.374;2022-08-23T02:12:42;12.65;;;5.07;;
17177;SDS011;8704;52.006;4.374;2022-08-23T02:15:12;9.57;;;4.72;;
17177;SDS011;8704;52.006;4.374;2022-08-23T02:17:41;13.05;;;5.32;;
17177;SDS011;8704;52.006;4.374;2022-08-23T02:20:11;8.88;;;4.95;;
17177;SDS011;8704;52.006;4.374;2022-08-23T02:22:40;7.30;;;4.78;;
17177;SDS011;8704;52.006;4.374;2022-08-23T02:25:08;12.85;;;5.25;;
17177;SDS011;8704;52.006;4.374;2022-08-23T02:27:36;9.20;;;5.22;;
17177;SDS011;8704;52.006;4.374;2022-08-23T02:30:11;9.63;;;5.47;;
17177;SDS011;8704;52.006;4.374;2022-08-23T02:32:39;10.07;;;5.57;;
17177;SDS011;8704;52.006;4.374;2022-08-23T02:35:09;10.80;;;5.40;;
17177;SDS011;8704;52.006;4.374;2022-08-23T02:37:37;7.00;;;4.78;;
17177;SDS011;8704;52.006;4.374;2022-08-23T02:40:05;8.27;;;5.45;;
17177;SDS011;8704;52.006;4.374;2022-08-23T02:42:34;13.30;;;5.07;;
17177;SDS011;8704;52.006;4.374;2022-08-23T02:45:02;11.82;;;5.45;;
17177;SDS011;8704;52.006;4.374;2022-08-23T02:47:34;6.72;;;4.70;;
17177;SDS011;8704;52.006;4.374;2022-08-23T02:50:03;9.55;;;4.65;;
17177;SDS011;8704;52.006;4.374;2022-08-23T02:52:31;8.93;;;4.88;;
17177;SDS011;8704;52.006;4.374;2022-08-23T02:54:59;9.05;;;4.78;;
17177;SDS011;8704;52.006;4.374;2022-08-23T02:57:27;9.55;;;4.78;;
17177;SDS011;8704;52.006;4.374;2022-08-23T02:59:56;8.80;;;4.60;;
17177;SDS011;8704;52.006;4.374;2022-08-23T03:02:24;7.50;;;4.65;;
17177;SDS011;8704;52.006;4.374;2022-08-23T03:04:54;7.20;;;4.65;;
17177;SDS011;8704;52.006;4.374;2022-08-23T03:07:22;9.00;;;4.57;;
17177;SDS011;8704;52.006;4.374;2022-08-23T03:09:50;8.88;;;4.80;;
17177;SDS011;8704;52.006;4.374;2022-08-23T03:12:18;9.07;;;4.95;;
17177;SDS011;8704;52.006;4.374;2022-08-23T03:14:46;8.75;;;4.95;;
17177;SDS011;8704;52.006;4.374;2022-08-23T03:17:17;8.63;;;4.38;;
17177;SDS011;8704;52.006;4.374;2022-08-23T03:19:46;8.98;;;4.97;;
17177;SDS011;8704;52.006;4.374;2022-08-23T03:22:15;7.60;;;4.05;;
17177;SDS011;8704;52.006;4.374;2022-08-23T03:24:43;11.73;;;5.28;;
17177;SDS011;8704;52.006;4.374;2022-08-23T03:27:11;7.85;;;4.53;;
17177;SDS011;8704;52.006;4.374;2022-08-23T03:29:39;6.32;;;4.40;;
17177;SDS011;8704;52.006;4.374;2022-08-23T03:32:07;11.18;;;4.60;;
17177;SDS011;8704;52.006;4.374;2022-08-23T03:34:35;6.93;;;4.63;;
17177;SDS011;8704;52.006;4.374;2022-08-23T03:37:03;9.35;;;4.82;;
17177;SDS011;8704;52.006;4.374;2022-08-23T03:39:32;7.30;;;4.60;;
17177;SDS011;8704;52.006;4.374;2022-08-23T03:42:01;9.27;;;5.20;;
17177;SDS011;8704;52.006;4.374;2022-08-23T03:44:29;11.02;;;4.90;;
17177;SDS011;8704;52.006;4.374;2022-08-23T03:46:57;8.50;;;4.45;;
17177;SDS011;8704;52.006;4.374;2022-08-23T03:49:25;7.00;;;4.68;;
17177;SDS011;8704;52.006;4.374;2022-08-23T03:51:53;11.35;;;5.20;;
17177;SDS011;8704;52.006;4.374;2022-08-23T03:54:21;7.47;;;4.93;;
17177;SDS011;8704;52.006;4.374;2022-08-23T03:56:51;10.50;;;5.38;;
17177;SDS011;8704;52.006;4.374;2022-08-23T03:59:21;11.00;;;5.50;;
17177;SDS011;8704;52.006;4.374;2022-08-23T04:01:49;10.15;;;5.50;;
17177;SDS011;8704;52.006;4.374;2022-08-23T04:04:17;8.65;;;5.10;;
17177;SDS011;8704;52.006;4.374;2022-08-23T04:06:45;8.02;;;5.35;;
17177;SDS011;8704;52.006;4.374;2022-08-23T04:09:13;9.40;;;5.70;;
17177;SDS011;8704;52.006;4.374;2022-08-23T04:11:41;8.57;;;5.28;;
17177;SDS011;8704;52.006;4.374;2022-08-23T04:14:11;10.75;;;5.22;;
17177;SDS011;8704;52.006;4.374;2022-08-23T04:16:39;8.60;;;5.00;;
17177;SDS011;8704;52.006;4.374;2022-08-23T04:19:08;9.48;;;5.20;;
17177;SDS011;8704;52.006;4.374;2022-08-23T04:21:40;10.32;;;5.82;;
17177;SDS011;8704;52.006;4.374;2022-08-23T04:24:10;8.18;;;4.95;;
17177;SDS011;8704;52.006;4.374;2022-08-23T04:26:39;9.20;;;5.07;;
17177;SDS011;8704;52.006;4.374;2022-08-23T04:29:08;9.65;;;5.07;;
17177;SDS011;8704;52.006;4.374;2022-08-23T04:32:00;11.00;;;5.13;;
17177;SDS011;8704;52.006;4.374;2022-08-23T04:34:33;9.63;;;5.85;;
17177;SDS011;8704;52.006;4.374;2022-08-23T04:37:01;10.40;;;6.15;;
17177;SDS011;8704;52.006;4.374;2022-08-23T04:39:34;8.38;;;5.30;;
17177;SDS011;8704;52.006;4.374;2022-08-23T04:42:23;9.35;;;5.03;;
17177;SDS011;8704;52.006;4.374;2022-08-23T04:44:51;8.65;;;5.40;;
17177;SDS011;8704;52.006;4.374;2022-08-23T04:47:20;10.52;;;5.95;;
17177;SDS011;8704;52.006;4.374;2022-08-23T04:49:48;9.93;;;5.90;;
17177;SDS011;8704;52.006;4.374;2022-08-23T04:52:16;7.85;;;5.32;;
17177;SDS011;8704;52.006;4.374;2022-08-23T04:54:45;10.52;;;6.03;;
17177;SDS011;8704;52.006;4.374;2022-08-23T04:57:13;10.25;;;6.18;;
17177;SDS011;8704;52.006;4.374;2022-08-23T04:59:41;11.82;;;6.43;;
17177;SDS011;8704;52.006;4.374;2022-08-23T05:02:09;10.48;;;6.32;;
17177;SDS011;8704;52.006;4.374;2022-08-23T05:04:39;11.65;;;6.72;;
17177;SDS011;8704;52.006;4.374;2022-08-23T05:07:07;12.00;;;6.20;;
17177;SDS011;8704;52.006;4.374;2022-08-23T05:09:36;14.35;;;8.10;;
17177;SDS011;8704;52.006;4.374;2022-08-23T05:12:04;10.60;;;7.43;;
17177;SDS011;8704;52.006;4.374;2022-08-23T05:14:32;11.23;;;8.05;;
17177;SDS011;8704;52.006;4.374;2022-08-23T05:17:00;13.55;;;7.78;;
17177;SDS011;8704;52.006;4.374;2022-08-23T05:19:29;12.40;;;7.15;;
17177;SDS011;8704;52.006;4.374;2022-08-23T05:21:59;12.27;;;7.45;;
17177;SDS011;8704;52.006;4.374;2022-08-23T05:24:26;12.88;;;8.63;;
17177;SDS011;8704;52.006;4.374;2022-08-23T05:26:54;9.18;;;6.85;;
17177;SDS011;8704;52.006;4.374;2022-08-23T05:29:22;10.98;;;8.07;;
17177;SDS011;8704;52.006;4.374;2022-08-23T05:31:52;15.32;;;7.65;;
17177;SDS011;8704;52.006;4.374;2022-08-23T05:34:22;14.48;;;9.10;;
17177;SDS011;8704;52.006;4.374;2022-08-23T05:36:50;14.23;;;8.55;;
17177;SDS011;8704;52.006;4.374;2022-08-23T05:39:22;14.80;;;9.50;;
17177;SDS011;8704;52.006;4.374;2022-08-23T05:42:01;14.15;;;9.57;;
17177;SDS011;8704;52.006;4.374;2022-08-23T05:44:30;14.52;;;9.55;;
17177;SDS011;8704;52.006;4.374;2022-08-23T05:47:02;18.85;;;10.27;;
17177;SDS011;8704;52.006;4.374;2022-08-23T05:49:36;15.90;;;10.63;;
17177;SDS011;8704;52.006;4.374;2022-08-23T05:52:05;17.73;;;10.50;;
17177;SDS011;8704;52.006;4.374;2022-08-23T05:54:36;18.83;;;11.48;;
17177;SDS011;8704;52.006;4.374;2022-08-23T05:57:04;18.23;;;10.95;;
17177;SDS011;8704;52.006;4.374;2022-08-23T05:59:32;17.50;;;11.15;;
17177;SDS011;8704;52.006;4.374;2022-08-23T06:02:01;18.80;;;11.43;;
17177;SDS011;8704;52.006;4.374;2022-08-23T06:04:28;18.95;;;11.52;;
17177;SDS011;8704;52.006;4.374;2022-08-23T06:06:57;15.15;;;11.52;;
17177;SDS011;8704;52.006;4.374;2022-08-23T06:09:25;17.45;;;10.02;;
17177;SDS011;8704;52.006;4.374;2022-08-23T06:11:54;19.13;;;9.20;;
17177;SDS011;8704;52.006;4.374;2022-08-23T06:14:24;16.70;;;10.63;;
17177;SDS011;8704;52.006;4.374;2022-08-23T06:16:52;17.17;;;10.95;;
17177;SDS011;8704;52.006;4.374;2022-08-23T06:19:21;19.80;;;13.77;;
17177;SDS011;8704;52.006;4.374;2022-08-23T06:21:50;18.30;;;13.07;;
17177;SDS011;8704;52.006;4.374;2022-08-23T06:24:19;22.23;;;13.48;;
17177;SDS011;8704;52.006;4.374;2022-08-23T06:26:47;18.48;;;12.13;;
17177;SDS011;8704;52.006;4.374;2022-08-23T06:29:17;19.45;;;11.95;;
17177;SDS011;8704;52.006;4.374;2022-08-23T06:31:47;21.25;;;12.15;;
17177;SDS011;8704;52.006;4.374;2022-08-23T06:34:17;15.63;;;11.85;;
17177;SDS011;8704;52.006;4.374;2022-08-23T06:36:47;17.80;;;10.60;;
17177;SDS011;8704;52.006;4.374;2022-08-23T06:39:18;17.77;;;10.15;;
17177;SDS011;8704;52.006;4.374;2022-08-23T06:41:47;16.05;;;8.73;;
17177;SDS011;8704;52.006;4.374;2022-08-23T06:44:18;12.60;;;8.25;;
17177;SDS011;8704;52.006;4.374;2022-08-23T06:46:46;15.80;;;8.10;;
17177;SDS011;8704;52.006;4.374;2022-08-23T06:49:15;14.15;;;7.70;;
17177;SDS011;8704;52.006;4.374;2022-08-23T06:51:43;12.35;;;6.32;;
17177;SDS011;8704;52.006;4.374;2022-08-23T06:54:14;9.93;;;6.53;;
17177;SDS011;8704;52.006;4.374;2022-08-23T06:56:45;9.73;;;6.07;;
17177;SDS011;8704;52.006;4.374;2022-08-23T06:59:15;12.85;;;5.82;;
17177;SDS011;8704;52.006;4.374;2022-08-23T07:01:46;8.23;;;5.53;;
17177;SDS011;8704;52.006;4.374;2022-08-23T07:04:18;10.05;;;4.93;;
17177;SDS011;8704;52.006;4.374;2022-08-23T07:06:47;9.65;;;4.63;;
17177;SDS011;8704;52.006;4.374;2022-08-23T07:09:16;11.93;;;5.07;;
17177;SDS011;8704;52.006;4.374;2022-08-23T07:11:44;12.30;;;5.88;;
17177;SDS011;8704;52.006;4.374;2022-08-23T07:14:16;11.32;;;5.65;;
17177;SDS011;8704;52.006;4.374;2022-08-23T07:16:47;10.60;;;5.65;;
17177;SDS011;8704;52.006;4.374;2022-08-23T07:19:17;12.98;;;5.10;;
17177;SDS011;8704;52.006;4.374;2022-08-23T07:21:46;10.90;;;5.30;;
17177;SDS011;8704;52.006;4.374;2022-08-23T07:24:15;9.38;;;4.80;;
17177;SDS011;8704;52.006;4.374;2022-08-23T07:26:44;16.05;;;5.07;;
17177;SDS011;8704;52.006;4.374;2022-08-23T07:29:13;8.13;;;4.50;;
17177;SDS011;8704;52.006;4.374;2022-08-23T07:31:44;10.77;;;4.40;;
17177;SDS011;8704;52.006;4.374;2022-08-23T07:34:15;7.05;;;3.80;;
17177;SDS011;8704;52.006;4.374;2022-08-23T07:36:44;8.88;;;4.55;;
17177;SDS011;8704;52.006;4.374;2022-08-23T07:39:14;9.07;;;4.15;;
17177;SDS011;8704;52.006;4.374;2022-08-23T07:41:42;10.25;;;3.85;;
17177;SDS011;8704;52.006;4.374;2022-08-23T07:44:12;7.72;;;3.03;;
17177;SDS011;8704;52.006;4.374;2022-08-23T07:46:43;6.57;;;3.70;;
17177;SDS011;8704;52.006;4.374;2022-08-23T07:49:13;7.65;;;3.20;;
17177;SDS011;8704;52.006;4.374;2022-08-23T07:51:44;10.43;;;3.45;;
17177;SDS011;8704;52.006;4.374;2022-08-23T07:56:43;8.95;;;3.45;;
17177;SDS011;8704;52.006;4.374;2022-08-23T07:59:11;6.43;;;2.85;;
17177;SDS011;8704;52.006;4.374;2022-08-23T08:01:40;8.80;;;3.00;;
17177;SDS011;8704;52.006;4.374;2022-08-23T08:04:10;8.30;;;3.20;;
17177;SDS011;8704;52.006;4.374;2022-08-23T08:06:40;5.60;;;2.50;;
17177;SDS011;8704;52.006;4.374;2022-08-23T08:09:11;6.80;;;2.70;;
17177;SDS011;8704;52.006;4.374;2022-08-23T08:11:41;5.07;;;2.28;;
17177;SDS011;8704;52.006;4.374;2022-08-23T08:14:10;5.43;;;2.33;;
17177;SDS011;8704;52.006;4.374;2022-08-23T08:16:40;5.75;;;2.65;;
17177;SDS011;8704;52.006;4.374;2022-08-23T08:19:10;5.97;;;2.47;;
17177;SDS011;8704;52.006;4.374;2022-08-23T08:21:42;5.53;;;2.30;;
17177;SDS011;8704;52.006;4.374;2022-08-23T08:24:12;6.35;;;2.50;;
17177;SDS011;8704;52.006;4.374;2022-08-23T08:26:42;5.82;;;2.80;;
17177;SDS011;8704;52.006;4.374;2022-08-23T08:29:11;6.25;;;2.50;;
17177;SDS011;8704;52.006;4.374;2022-08-23T08:31:40;6.35;;;2.70;;
17177;SDS011;8704;52.006;4.374;2022-08-23T08:34:11;7.47;;;2.70;;
17177;SDS011;8704;52.006;4.374;2022-08-23T08:36:40;10.18;;;2.95;;
17177;SDS011;8704;52.006;4.374;2022-08-23T08:41:47;6.82;;;2.10;;
17177;SDS011;8704;52.006;4.374;2022-08-23T08:44:32;5.50;;;2.22;;
17177;SDS011;8704;52.006;4.374;2022-08-23T08:47:06;5.72;;;2.58;;
17177;SDS011;8704;52.006;4.374;2022-08-23T08:49:37;7.57;;;2.47;;
17177;SDS011;8704;52.006;4.374;2022-08-23T08:52:14;4.50;;;2.30;;
17177;SDS011;8704;52.006;4.374;2022-08-23T08:54:45;5.38;;;2.17;;
17177;SDS011;8704;52.006;4.374;2022-08-23T08:57:18;4.38;;;2.10;;
17177;SDS011;8704;52.006;4.374;2022-08-23T08:59:54;4.90;;;1.98;;
17177;SDS011;8704;52.006;4.374;2022-08-23T09:02:28;5.45;;;1.90;;
17177;SDS011;8704;52.006;4.374;2022-08-23T09:04:59;4.43;;;2.05;;
17177;SDS011;8704;52.006;4.374;2022-08-23T09:07:32;5.72;;;1.95;;
17177;SDS011;8704;52.006;4.374;2022-08-23T09:10:19;7.13;;;2.05;;
17177;SDS011;8704;52.006;4.374;2022-08-23T09:12:56;4.38;;;2.25;;
17177;SDS011;8704;52.006;4.374;2022-08-23T09:15:32;4.80;;;2.65;;
17177;SDS011;8704;52.006;4.374;2022-08-23T09:18:06;5.35;;;2.20;;
17177;SDS011;8704;52.006;4.374;2022-08-23T09:20:36;3.88;;;2.28;;
17177;SDS011;8704;52.006;4.374;2022-08-23T09:23:07;5.88;;;2.10;;
17177;SDS011;8704;52.006;4.374;2022-08-23T09:25:37;3.50;;;1.75;;
17177;SDS011;8704;52.006;4.374;2022-08-23T09:28:05;6.55;;;2.20;;
17177;SDS011;8704;52.006;4.374;2022-08-23T09:30:44;4.35;;;1.77;;
17177;SDS011;8704;52.006;4.374;2022-08-23T09:33:15;3.90;;;2.42;;
17177;SDS011;8704;52.006;4.374;2022-08-23T09:35:46;6.30;;;2.33;;
17177;SDS011;8704;52.006;4.374;2022-08-23T09:38:35;5.57;;;1.85;;
17177;SDS011;8704;52.006;4.374;2022-08-23T09:41:14;10.57;;;2.60;;
17177;SDS011;8704;52.006;4.374;2022-08-23T09:43:45;8.27;;;2.50;;
17177;SDS011;8704;52.006;4.374;2022-08-23T09:46:22;5.30;;;1.65;;
17177;SDS011;8704;52.006;4.374;2022-08-23T09:48:52;4.90;;;1.77;;
17177;SDS011;8704;52.006;4.374;2022-08-23T09:51:24;3.28;;;1.83;;
17177;SDS011;8704;52.006;4.374;2022-08-23T09:54:05;4.35;;;1.88;;
17177;SDS011;8704;52.006;4.374;2022-08-23T09:56:37;4.70;;;1.67;;
17177;SDS011;8704;52.006;4.374;2022-08-23T09:59:19;4.20;;;1.77;;
17177;SDS011;8704;52.006;4.374;2022-08-23T10:01:55;6.22;;;1.80;;
17177;SDS011;8704;52.006;4.374;2022-08-23T10:04:29;4.90;;;2.17;;
17177;SDS011;8704;52.006;4.374;2022-08-23T10:09:55;5.45;;;1.63;;
17177;SDS011;8704;52.006;4.374;2022-08-23T10:12:45;7.13;;;1.92;;
17177;SDS011;8704;52.006;4.374;2022-08-23T10:15:15;7.40;;;1.80;;
17177;SDS011;8704;52.006;4.374;2022-08-23T10:17:45;3.67;;;1.70;;
17177;SDS011;8704;52.006;4.374;2022-08-23T10:20:24;5.15;;;2.00;;
17177;SDS011;8704;52.006;4.374;2022-08-23T10:23:00;3.55;;;2.10;;
17177;SDS011;8704;52.006;4.374;2022-08-23T10:25:40;6.38;;;2.00;;
17177;SDS011;8704;52.006;4.374;2022-08-23T10:28:12;4.38;;;2.00;;
17177;SDS011;8704;52.006;4.374;2022-08-23T10:31:06;8.05;;;2.25;;
17177;SDS011;8704;52.006;4.374;2022-08-23T10:33:44;4.68;;;2.03;;
17177;SDS011;8704;52.006;4.374;2022-08-23T10:36:17;4.30;;;1.75;;
17177;SDS011;8704;52.006;4.374;2022-08-23T10:38:51;5.40;;;1.95;;
17177;SDS011;8704;52.006;4.374;2022-08-23T10:41:35;5.28;;;2.22;;
17177;SDS011;8704;52.006;4.374;2022-08-23T10:44:18;5.00;;;1.95;;
17177;SDS011;8704;52.006;4.374;2022-08-23T10:46:55;5.75;;;2.10;;
17177;SDS011;8704;52.006;4.374;2022-08-23T10:49:31;5.85;;;2.10;;
17177;SDS011;8704;52.006;4.374;2022-08-23T10:52:02;5.30;;;1.85;;
17177;SDS011;8704;52.006;4.374;2022-08-23T10:54:35;6.90;;;2.20;;
17177;SDS011;8704;52.006;4.374;2022-08-23T10:57:14;4.93;;;2.05;;
17177;SDS011;8704;52.006;4.374;2022-08-23T10:59:45;4.63;;;2.00;;
17177;SDS011;8704;52.006;4.374;2022-08-23T11:02:17;6.38;;;2.03;;
17177;SDS011;8704;52.006;4.374;2022-08-23T11:04:54;5.38;;;2.35;;
17177;SDS011;8704;52.006;4.374;2022-08-23T11:07:28;7.10;;;2.65;;
17177;SDS011;8704;52.006;4.374;2022-08-23T11:10:09;7.78;;;2.80;;
17177;SDS011;8704;52.006;4.374;2022-08-23T11:12:52;6.03;;;2.70;;
17177;SDS011;8704;52.006;4.374;2022-08-23T11:15:27;9.07;;;2.95;;
17177;SDS011;8704;52.006;4.374;2022-08-23T11:18:10;6.22;;;3.28;;
17177;SDS011;8704;52.006;4.374;2022-08-23T11:21:06;5.18;;;2.83;;
17177;SDS011;8704;52.006;4.374;2022-08-23T11:29:35;6.13;;;2.50;;
17177;SDS011;8704;52.006;4.374;2022-08-23T11:32:19;5.63;;;2.97;;
17177;SDS011;8704;52.006;4.374;2022-08-23T11:35:01;6.65;;;2.70;;
17177;SDS011;8704;52.006;4.374;2022-08-23T11:37:56;6.10;;;2.58;;
17177;SDS011;8704;52.006;4.374;2022-08-23T11:40:41;8.10;;;2.80;;
17177;SDS011;8704;52.006;4.374;2022-08-23T11:43:31;6.13;;;3.45;;
17177;SDS011;8704;52.006;4.374;2022-08-23T11:46:20;6.57;;;3.17;;
17177;SDS011;8704;52.006;4.374;2022-08-23T11:49:01;6.43;;;3.03;;
17177;SDS011;8704;52.006;4.374;2022-08-23T11:51:49;6.75;;;3.20;;
17177;SDS011;8704;52.006;4.374;2022-08-23T11:54:30;8.05;;;4.47;;
17177;SDS011;8704;52.006;4.374;2022-08-23T11:57:17;6.13;;;3.00;;
17177;SDS011;8704;52.006;4.374;2022-08-23T11:59:57;6.78;;;3.30;;
17177;SDS011;8704;52.006;4.374;2022-08-23T12:02:44;7.55;;;3.90;;
17177;SDS011;8704;52.006;4.374;2022-08-23T12:05:39;9.65;;;3.63;;
17177;SDS011;8704;52.006;4.374;2022-08-23T12:08:28;6.57;;;3.95;;
17177;SDS011;8704;52.006;4.374;2022-08-23T12:11:01;8.70;;;4.28;;
17177;SDS011;8704;52.006;4.374;2022-08-23T12:13:43;9.50;;;4.40;;
17177;SDS011;8704;52.006;4.374;2022-08-23T12:19:19;7.03;;;4.07;;
17177;SDS011;8704;52.006;4.374;2022-08-23T12:22:05;9.93;;;5.10;;
17177;SDS011;8704;52.006;4.374;2022-08-23T12:24:39;8.98;;;3.45;;
17177;SDS011;8704;52.006;4.374;2022-08-23T12:27:25;5.78;;;3.45;;
17177;SDS011;8704;52.006;4.374;2022-08-23T12:29:58;8.20;;;3.10;;
17177;SDS011;8704;52.006;4.374;2022-08-23T12:32:35;7.55;;;3.33;;
17177;SDS011;8704;52.006;4.374;2022-08-23T12:35:17;6.35;;;3.10;;
17177;SDS011;8704;52.006;4.374;2022-08-23T12:37:58;8.02;;;3.10;;
17177;SDS011;8704;52.006;4.374;2022-08-23T12:40:33;8.25;;;3.53;;
17177;SDS011;8704;52.006;4.374;2022-08-23T12:43:08;9.77;;;3.30;;
17177;SDS011;8704;52.006;4.374;2022-08-23T12:45:48;7.15;;;3.13;;
17177;SDS011;8704;52.006;4.374;2022-08-23T12:48:19;8.18;;;3.33;;
17177;SDS011;8704;52.006;4.374;2022-08-23T12:50:53;6.28;;;3.50;;
17177;SDS011;8704;52.006;4.374;2022-08-23T12:53:28;7.68;;;4.00;;
17177;SDS011;8704;52.006;4.374;2022-08-23T12:55:58;6.65;;;3.83;;
17177;SDS011;8704;52.006;4.374;2022-08-23T12:58:30;7.28;;;4.05;;
17177;SDS011;8704;52.006;4.374;2022-08-23T13:01:00;6.03;;;3.67;;
17177;SDS011;8704;52.006;4.374;2022-08-23T13:03:32;7.90;;;5.05;;
17177;SDS011;8704;52.006;4.374;2022-08-23T13:06:05;8.82;;;4.88;;
17177;SDS011;8704;52.006;4.374;2022-08-23T13:08:37;9.95;;;5.57;;
17177;SDS011;8704;52.006;4.374;2022-08-23T13:13:38;9.60;;;4.88;;
17177;SDS011;8704;52.006;4.374;2022-08-23T13:16:24;9.20;;;4.95;;
17177;SDS011;8704;52.006;4.374;2022-08-23T13:19:09;10.93;;;5.82;;
17177;SDS011;8704;52.006;4.374;2022-08-23T13:21:43;11.30;;;6.55;;
17177;SDS011;8704;52.006;4.374;2022-08-23T13:24:30;13.75;;;7.93;;
17177;SDS011;8704;52.006;4.374;2022-08-23T13:27:15;10.70;;;6.28;;
17177;SDS011;8704;52.006;4.374;2022-08-23T13:32:30;7.95;;;4.35;;
17177;SDS011;8704;52.006;4.374;2022-08-23T13:35:21;9.40;;;4.22;;
17177;SDS011;8704;52.006;4.374;2022-08-23T13:37:58;9.35;;;4.35;;
17177;SDS011;8704;52.006;4.374;2022-08-23T13:40:38;11.15;;;4.07;;
17177;SDS011;8704;52.006;4.374;2022-08-23T13:43:08;8.35;;;4.70;;
17177;SDS011;8704;52.006;4.374;2022-08-23T13:45:43;8.85;;;4.30;;
17177;SDS011;8704;52.006;4.374;2022-08-23T13:48:14;8.63;;;4.07;;
17177;SDS011;8704;52.006;4.374;2022-08-23T13:50:46;9.93;;;4.20;;
17177;SDS011;8704;52.006;4.374;2022-08-23T13:53:17;8.70;;;3.50;;
17177;SDS011;8704;52.006;4.374;2022-08-23T13:55:46;9.30;;;4.50;;
17177;SDS011;8704;52.006;4.374;2022-08-23T13:58:23;8.02;;;4.03;;
17177;SDS011;8704;52.006;4.374;2022-08-23T14:00:54;10.25;;;4.55;;
17177;SDS011;8704;52.006;4.374;2022-08-23T14:03:24;8.73;;;4.97;;
17177;SDS011;8704;52.006;4.374;2022-08-23T14:05:53;9.52;;;3.90;;
17177;SDS011;8704;52.006;4.374;2022-08-23T14:08:23;7.93;;;3.97;;
17177;SDS011;8704;52.006;4.374;2022-08-23T14:10:51;6.55;;;3.80;;
17177;SDS011;8704;52.006;4.374;2022-08-23T14:13:19;6.72;;;3.13;;
17177;SDS011;8704;52.006;4.374;2022-08-23T14:15:53;7.82;;;4.15;;
17177;SDS011;8704;52.006;4.374;2022-08-23T14:18:45;7.88;;;4.43;;
17177;SDS011;8704;52.006;4.374;2022-08-23T14:21:33;7.45;;;3.70;;
17177;SDS011;8704;52.006;4.374;2022-08-23T14:24:03;6.28;;;3.38;;
17177;SDS011;8704;52.006;4.374;2022-08-23T14:26:31;8.13;;;3.28;;
17177;SDS011;8704;52.006;4.374;2022-08-23T14:28:59;6.03;;;4.00;;
17177;SDS011;8704;52.006;4.374;2022-08-23T14:31:28;6.30;;;3.17;;
17177;SDS011;8704;52.006;4.374;2022-08-23T14:33:56;5.57;;;3.40;;
17177;SDS011;8704;52.006;4.374;2022-08-23T14:36:27;6.13;;;3.45;;
17177;SDS011;8704;52.006;4.374;2022-08-23T14:38:55;7.72;;;3.15;;
17177;SDS011;8704;52.006;4.374;2022-08-23T14:41:25;4.38;;;3.00;;
17177;SDS011;8704;52.006;4.374;2022-08-23T14:43:54;5.72;;;2.83;;
17177;SDS011;8704;52.006;4.374;2022-08-23T14:46:22;7.25;;;4.20;;
17177;SDS011;8704;52.006;4.374;2022-08-23T14:48:50;4.65;;;2.70;;
17177;SDS011;8704;52.006;4.374;2022-08-23T14:51:22;5.32;;;3.13;;
17177;SDS011;8704;52.006;4.374;2022-08-23T14:53:51;7.45;;;3.63;;
17177;SDS011;8704;52.006;4.374;2022-08-23T14:56:20;6.28;;;3.13;;
17177;SDS011;8704;52.006;4.374;2022-08-23T14:58:50;5.70;;;3.80;;
17177;SDS011;8704;52.006;4.374;2022-08-23T15:01:18;6.05;;;3.60;;
17177;SDS011;8704;52.006;4.374;2022-08-23T15:03:47;5.70;;;4.10;;
17177;SDS011;8704;52.006;4.374;2022-08-23T15:06:16;5.55;;;4.28;;
17177;SDS011;8704;52.006;4.374;2022-08-23T15:08:46;5.80;;;4.47;;
17177;SDS011;8704;52.006;4.374;2022-08-23T15:11:14;6.40;;;3.55;;
17177;SDS011;8704;52.006;4.374;2022-08-23T15:14:03;9.05;;;4.38;;
17177;SDS011;8704;52.006;4.374;2022-08-23T15:16:31;6.20;;;4.25;;
17177;SDS011;8704;52.006;4.374;2022-08-23T15:19:00;4.88;;;3.10;;
17177;SDS011;8704;52.006;4.374;2022-08-23T15:21:28;5.45;;;3.65;;
17177;SDS011;8704;52.006;4.374;2022-08-23T15:23:56;6.68;;;3.92;;
17177;SDS011;8704;52.006;4.374;2022-08-23T15:26:24;4.57;;;3.33;;
17177;SDS011;8704;52.006;4.374;2022-08-23T15:28:54;5.10;;;4.05;;
17177;SDS011;8704;52.006;4.374;2022-08-23T15:31:24;6.10;;;3.30;;
17177;SDS011;8704;52.006;4.374;2022-08-23T15:33:52;6.13;;;3.20;;
17177;SDS011;8704;52.006;4.374;2022-08-23T15:36:20;5.22;;;4.35;;
17177;SDS011;8704;52.006;4.374;2022-08-23T15:38:49;7.05;;;4.20;;
17177;SDS011;8704;52.006;4.374;2022-08-23T15:41:17;4.53;;;2.53;;
17177;SDS011;8704;52.006;4.374;2022-08-23T15:43:46;5.95;;;3.78;;
17177;SDS011;8704;52.006;4.374;2022-08-23T15:46:17;5.80;;;3.78;;
17177;SDS011;8704;52.006;4.374;2022-08-23T15:48:50;5.82;;;3.17;;
17177;SDS011;8704;52.006;4.374;2022-08-23T15:51:22;5.85;;;2.72;;